createdAt,value
2018-03-23T00:01:27.607Z,5.36
2018-03-23T00:03:53.628Z,5.36
2018-03-23T00:06:19.625Z,5.37
2018-03-23T00:08:45.628Z,5.32
2018-03-23T00:11:11.650Z,5.29
2018-03-23T00:13:37.652Z,5.32
2018-03-23T00:16:03.713Z,5.31
2018-03-23T00:18:29.727Z,5.29
2018-03-23T00:20:55.722Z,5.30
2018-03-23T00:23:21.748Z,5.28
2018-03-23T00:25:47.823Z,5.27
2018-03-23T00:28:13.846Z,5.28
2018-03-23T00:30:39.870Z,5.29
2018-03-23T00:33:05.881Z,5.27
2018-03-23T00:35:32.002Z,5.27
2018-03-23T00:37:58.004Z,5.22
2018-03-23T00:40:24.038Z,5.22
2018-03-23T00:42:50.073Z,5.23
2018-03-23T00:45:16.196Z,5.27
2018-03-23T00:47:42.203Z,5.23
2018-03-23T00:50:08.265Z,5.20
2018-03-23T00:52:34.327Z,5.19
2018-03-23T00:55:00.434Z,5.19
2018-03-23T00:57:26.463Z,5.18
2018-03-23T00:59:52.460Z,5.15
2018-03-23T01:02:18.555Z,5.16
2018-03-23T01:04:44.627Z,5.13
2018-03-23T01:07:10.623Z,5.14
2018-03-23T01:09:36.653Z,5.13
2018-03-23T01:12:02.766Z,5.12
2018-03-23T01:14:28.929Z,5.11
2018-03-23T01:16:54.942Z,5.11
2018-03-23T01:19:20.958Z,5.11
2018-03-23T01:21:47.067Z,5.08
2018-03-23T01:24:13.150Z,5.07
2018-03-23T01:26:39.125Z,5.06
2018-03-23T01:29:05.114Z,5.05
2018-03-23T01:31:31.224Z,5.05
2018-03-23T01:33:57.207Z,5.04
2018-03-23T01:36:23.227Z,5.03
2018-03-23T01:38:49.319Z,5.01
2018-03-23T01:41:15.313Z,4.99
2018-03-23T01:43:41.345Z,4.96
2018-03-23T01:46:07.433Z,4.94
2018-03-23T01:48:33.464Z,4.97
2018-03-23T01:50:59.489Z,4.98
2018-03-23T01:53:37.697Z,4.97
2018-03-23T01:56:03.747Z,4.95
2018-03-23T01:58:29.756Z,4.92
2018-03-23T02:00:56.413Z,4.87
2018-03-23T02:03:22.550Z,4.91
2018-03-23T02:05:48.570Z,4.88
2018-03-23T02:08:14.601Z,4.86
2018-03-23T02:10:40.771Z,4.84
2018-03-23T02:13:06.928Z,4.84
2018-03-23T02:15:32.922Z,4.81
2018-03-23T02:17:58.926Z,4.80
2018-03-23T02:20:24.976Z,4.79
2018-03-23T02:22:51.019Z,4.78
2018-03-23T02:25:17.004Z,4.82
2018-03-23T02:27:43.030Z,4.81
2018-03-23T02:30:09.241Z,4.81
2018-03-23T02:32:35.235Z,4.77
2018-03-23T02:35:01.251Z,4.80
2018-03-23T02:37:27.303Z,4.78
2018-03-23T02:39:55.410Z,4.78
2018-03-23T02:42:21.410Z,4.82
2018-03-23T02:44:47.436Z,4.80
2018-03-23T02:47:13.460Z,4.79
2018-03-23T02:49:39.537Z,4.78
2018-03-23T02:52:06.073Z,4.74
2018-03-23T02:54:32.081Z,4.73
2018-03-23T02:56:58.108Z,4.79
2018-03-23T02:59:24.150Z,4.77
2018-03-23T03:01:50.183Z,4.75
2018-03-23T03:04:16.296Z,4.73
2018-03-23T03:06:42.505Z,4.74
2018-03-23T03:09:08.577Z,4.71
2018-03-23T03:11:34.621Z,4.71
2018-03-23T03:14:00.716Z,4.70
2018-03-23T03:16:26.738Z,4.72
2018-03-23T03:18:52.979Z,4.70
2018-03-23T03:21:19.001Z,4.71
2018-03-23T03:23:45.004Z,4.68
2018-03-23T03:26:11.042Z,4.65
2018-03-23T03:28:37.065Z,4.68
2018-03-23T03:31:03.070Z,4.65
2018-03-23T03:33:29.083Z,4.65
2018-03-23T03:35:55.257Z,4.65
2018-03-23T03:38:21.249Z,4.64
2018-03-23T03:40:47.241Z,4.62
2018-03-23T03:43:13.299Z,4.61
2018-03-23T03:45:40.286Z,4.63
2018-03-23T03:48:06.415Z,4.64
2018-03-23T03:50:32.438Z,4.61
2018-03-23T03:52:58.611Z,4.60
2018-03-23T03:55:24.649Z,4.59
2018-03-23T03:57:50.755Z,4.54
2018-03-23T04:00:16.988Z,4.51
2018-03-23T04:02:42.969Z,4.49
2018-03-23T04:05:09.031Z,4.44
2018-03-23T04:07:35.097Z,4.38
2018-03-23T04:10:01.098Z,4.37
2018-03-23T04:12:27.122Z,4.34
2018-03-23T04:14:53.118Z,4.32
2018-03-23T04:17:19.125Z,4.30
2018-03-23T04:19:45.121Z,4.32
2018-03-23T04:22:11.128Z,4.31
2018-03-23T04:24:37.311Z,4.29
2018-03-23T04:27:03.309Z,4.28
2018-03-23T04:29:29.306Z,4.27
2018-03-23T04:31:55.299Z,4.21
2018-03-23T04:34:21.347Z,4.23
2018-03-23T04:36:47.349Z,4.21
2018-03-23T04:39:13.334Z,4.23
2018-03-23T04:41:39.410Z,4.24
2018-03-23T04:44:05.421Z,4.27
2018-03-23T04:46:31.501Z,4.23
2018-03-23T04:48:57.514Z,4.20
2018-03-23T04:51:23.565Z,4.22
2018-03-23T04:53:49.551Z,4.23
2018-03-23T04:56:15.562Z,4.25
2018-03-23T04:58:41.553Z,4.21
2018-03-23T05:01:07.719Z,4.22
2018-03-23T05:03:33.739Z,4.22
2018-03-23T05:05:59.741Z,4.23
2018-03-23T05:08:25.741Z,4.23
2018-03-23T05:10:51.770Z,4.26
2018-03-23T05:13:17.797Z,4.21
2018-03-23T05:15:44.485Z,4.21
2018-03-23T05:18:10.536Z,4.23
2018-03-23T05:20:36.532Z,4.25
2018-03-23T05:23:02.526Z,4.23
2018-03-23T05:25:28.720Z,4.21
2018-03-23T05:27:54.798Z,4.25
2018-03-23T05:30:20.898Z,4.23
2018-03-23T05:32:46.917Z,4.21
2018-03-23T05:35:13.086Z,4.24
2018-03-23T05:37:39.224Z,4.24
2018-03-23T05:40:05.235Z,4.19
2018-03-23T05:42:31.297Z,4.23
2018-03-23T05:44:57.295Z,4.16
2018-03-23T05:47:23.313Z,4.16
2018-03-23T05:49:49.321Z,4.15
2018-03-23T05:52:15.322Z,4.15
2018-03-23T05:54:41.374Z,4.14
2018-03-23T05:57:07.395Z,4.15
2018-03-23T05:59:33.417Z,4.17
2018-03-23T06:01:59.477Z,4.16
2018-03-23T06:04:25.573Z,4.18
2018-03-23T06:06:51.650Z,4.21
2018-03-23T06:09:17.651Z,4.19
2018-03-23T06:11:43.721Z,4.20
2018-03-23T06:14:09.713Z,4.23
2018-03-23T06:16:35.737Z,4.27
2018-03-23T06:19:01.771Z,4.28
2018-03-23T06:21:27.759Z,4.27
2018-03-23T06:23:53.773Z,4.29
2018-03-23T06:26:19.829Z,4.29
2018-03-23T06:28:46.401Z,4.30
2018-03-23T06:31:12.615Z,4.34
2018-03-23T06:33:38.601Z,4.35
2018-03-23T06:36:04.616Z,4.35
2018-03-23T06:38:30.689Z,4.37
2018-03-23T06:40:56.882Z,4.39
2018-03-23T06:43:22.909Z,4.43
2018-03-23T06:45:48.954Z,4.44
2018-03-23T06:48:15.119Z,4.45
2018-03-23T06:50:41.242Z,4.50
2018-03-23T06:53:07.296Z,4.49
2018-03-23T06:55:33.287Z,4.50
2018-03-23T06:57:59.309Z,4.53
2018-03-23T07:00:25.366Z,4.53
2018-03-23T07:02:51.400Z,4.56
2018-03-23T07:05:17.409Z,4.58
2018-03-23T07:07:43.451Z,4.59
2018-03-23T07:10:09.467Z,4.56
2018-03-23T07:12:35.538Z,4.60
2018-03-23T07:15:01.578Z,4.62
2018-03-23T07:17:27.631Z,4.61
2018-03-23T07:19:53.694Z,4.66
2018-03-23T07:22:19.726Z,4.63
2018-03-23T07:24:45.789Z,4.72
2018-03-23T07:27:11.830Z,4.68
2018-03-23T07:29:37.842Z,4.69
2018-03-23T07:32:04.082Z,4.65
2018-03-23T07:34:30.078Z,4.71
2018-03-23T07:36:56.110Z,4.73
2018-03-23T07:39:22.187Z,4.77
2018-03-23T07:41:48.558Z,4.85
2018-03-23T07:44:15.204Z,4.84
2018-03-23T07:46:41.282Z,4.85
2018-03-23T07:49:07.323Z,4.85
2018-03-23T07:51:33.374Z,4.84
2018-03-23T07:53:59.401Z,4.88
2018-03-23T07:56:25.425Z,4.87
2018-03-23T07:58:51.447Z,4.90
2018-03-23T08:01:17.454Z,4.94
2018-03-23T08:03:43.483Z,4.97
2018-03-23T08:06:09.502Z,4.99
2018-03-23T08:08:35.493Z,5.17
2018-03-23T08:11:01.524Z,5.34
2018-03-23T08:13:27.552Z,5.28
2018-03-23T08:15:53.642Z,5.37
2018-03-23T08:18:19.646Z,5.52
2018-03-23T08:20:45.671Z,5.63
2018-03-23T08:23:11.680Z,5.60
2018-03-23T08:25:37.686Z,5.68
2018-03-23T08:28:03.688Z,5.62
2018-03-23T08:30:29.741Z,5.75
2018-03-23T08:33:02.778Z,5.59
2018-03-23T08:35:28.927Z,5.70
2018-03-23T08:37:54.989Z,5.65
2018-03-23T08:40:21.008Z,5.71
2018-03-23T08:42:47.091Z,5.74
2018-03-23T08:45:13.135Z,5.84
2018-03-23T08:47:39.165Z,5.81
2018-03-23T08:50:05.195Z,5.93
2018-03-23T08:52:31.249Z,5.75
2018-03-23T08:54:57.258Z,5.83
2018-03-23T08:57:23.254Z,6.01
2018-03-23T08:59:49.314Z,5.94
2018-03-23T09:02:15.330Z,6.06
2018-03-23T09:04:41.367Z,6.12
2018-03-23T09:07:07.362Z,6.27
2018-03-23T09:09:33.352Z,6.31
2018-03-23T09:11:59.380Z,6.28
2018-03-23T09:14:25.389Z,6.37
2018-03-23T09:19:10.085Z,6.63
2018-03-23T09:21:36.122Z,6.76
2018-03-23T09:24:02.205Z,7.12
2018-03-23T09:26:28.282Z,7.22
2018-03-23T09:28:54.320Z,7.26
2018-03-23T09:31:21.046Z,6.91
2018-03-23T09:33:47.067Z,6.58
2018-03-23T09:36:13.129Z,6.72
2018-03-23T09:38:39.255Z,6.99
2018-03-23T09:41:05.406Z,6.94
2018-03-23T09:43:31.460Z,6.93
2018-03-23T09:45:57.533Z,7.13
2018-03-23T09:48:23.543Z,7.21
2018-03-23T09:50:49.605Z,7.39
2018-03-23T09:53:15.687Z,7.53
2018-03-23T09:55:41.730Z,7.01
2018-03-23T09:58:08.105Z,6.86
2018-03-23T10:00:34.110Z,6.60
2018-03-23T10:03:00.144Z,6.35
2018-03-23T10:05:26.209Z,6.51
2018-03-23T10:07:52.273Z,6.60
2018-03-23T10:10:18.875Z,6.61
2018-03-23T10:12:45.415Z,6.42
2018-03-23T10:15:11.426Z,6.40
2018-03-23T10:17:37.467Z,6.31
2018-03-23T10:20:03.525Z,6.39
2018-03-23T10:22:30.080Z,6.32
2018-03-23T10:24:56.093Z,6.38
2018-03-23T10:27:22.158Z,6.31
2018-03-23T10:29:48.254Z,6.42
2018-03-23T10:32:14.382Z,6.54
2018-03-23T10:34:40.561Z,6.82
2018-03-23T10:37:06.824Z,6.82
2018-03-23T10:39:32.942Z,6.75
2018-03-23T10:41:58.970Z,6.77
2018-03-23T10:44:25.083Z,6.74
2018-03-23T10:46:51.433Z,6.52
2018-03-23T10:49:17.447Z,6.45
2018-03-23T10:51:43.490Z,6.71
2018-03-23T10:54:09.554Z,6.94
2018-03-23T10:56:35.560Z,6.90
2018-03-23T10:59:01.673Z,6.83
2018-03-23T11:01:30.782Z,6.95
2018-03-23T11:03:56.791Z,6.96
2018-03-23T11:06:22.849Z,7.17
2018-03-23T11:08:48.958Z,7.41
2018-03-23T11:11:15.146Z,7.40
2018-03-23T11:13:41.239Z,7.24
2018-03-23T11:16:07.311Z,7.18
2018-03-23T11:18:34.149Z,7.53
2018-03-23T11:21:00.255Z,7.70
2018-03-23T11:23:26.428Z,7.81
2018-03-23T11:25:52.459Z,7.77
2018-03-23T11:28:18.513Z,7.74
2018-03-23T11:30:44.807Z,7.56
2018-03-23T11:33:11.296Z,7.42
2018-03-23T11:35:37.335Z,7.48
2018-03-23T11:38:03.362Z,7.36
2018-03-23T11:40:29.372Z,7.15
2018-03-23T11:42:55.407Z,7.18
2018-03-23T11:45:21.523Z,7.07
2018-03-23T11:47:47.610Z,7.04
2018-03-23T11:50:13.678Z,7.03
2018-03-23T11:52:39.720Z,7.00
2018-03-23T11:55:05.734Z,7.05
2018-03-23T11:57:31.735Z,6.94
2018-03-23T11:59:58.173Z,6.85
2018-03-23T12:02:24.288Z,6.87
2018-03-23T12:04:50.320Z,6.80
2018-03-23T12:07:17.209Z,6.96
2018-03-23T12:09:43.197Z,7.07
2018-03-23T12:12:09.231Z,7.14
2018-03-23T12:14:35.300Z,7.31
2018-03-23T12:17:01.399Z,7.33
2018-03-23T12:19:27.423Z,7.42
2018-03-23T12:21:53.417Z,7.31
2018-03-23T12:24:19.507Z,7.27
2018-03-23T12:26:45.652Z,7.32
2018-03-23T12:29:11.754Z,7.13
2018-03-23T12:31:37.835Z,7.24
2018-03-23T12:34:03.950Z,7.14
2018-03-23T12:36:30.002Z,7.07
2018-03-23T12:38:56.031Z,7.11
2018-03-23T12:41:22.087Z,7.12
2018-03-23T12:43:48.116Z,7.23
2018-03-23T12:46:14.768Z,7.41
2018-03-23T12:48:40.897Z,7.35
2018-03-23T12:51:06.972Z,7.23
2018-03-23T12:53:32.981Z,7.24
2018-03-23T12:55:59.096Z,7.25
2018-03-23T12:58:25.178Z,7.22
2018-03-23T13:00:51.176Z,7.28
2018-03-23T13:03:17.206Z,7.14
2018-03-23T13:05:43.245Z,7.14
2018-03-23T13:08:09.290Z,7.04
2018-03-23T13:10:35.323Z,7.07
2018-03-23T13:13:01.419Z,7.05
2018-03-23T13:15:27.420Z,7.03
2018-03-23T13:17:53.463Z,7.23
2018-03-23T13:20:19.459Z,7.37
2018-03-23T13:22:45.626Z,7.23
2018-03-23T13:25:11.654Z,7.25
2018-03-23T13:27:37.711Z,7.24
2018-03-23T13:30:03.721Z,7.35
2018-03-23T13:32:29.975Z,7.50
2018-03-23T13:34:56.033Z,7.56
2018-03-23T13:37:23.304Z,7.49
2018-03-23T13:39:49.334Z,7.39
2018-03-23T13:42:15.826Z,7.35
2018-03-23T13:44:41.952Z,7.35
2018-03-23T13:47:08.058Z,7.29
2018-03-23T13:49:34.089Z,7.37
2018-03-23T13:52:00.183Z,7.32
2018-03-23T13:54:26.260Z,7.24
2018-03-23T13:56:52.420Z,7.33
2018-03-23T13:59:24.514Z,7.35
2018-03-23T14:01:50.727Z,7.35
2018-03-23T14:04:16.874Z,7.28
2018-03-23T14:06:43.197Z,7.21
2018-03-23T14:09:09.236Z,7.04
2018-03-23T14:11:36.440Z,7.16
2018-03-23T14:14:02.504Z,7.13
2018-03-23T14:16:28.526Z,7.36
2018-03-23T14:18:54.832Z,7.36
2018-03-23T14:21:20.847Z,7.34
2018-03-23T14:23:46.941Z,7.28
2018-03-23T14:26:13.076Z,7.15
2018-03-23T14:28:39.318Z,7.06
2018-03-23T14:31:05.372Z,6.99
2018-03-23T14:33:31.382Z,6.96
2018-03-23T14:35:58.140Z,6.94
2018-03-23T14:38:24.277Z,6.86
2018-03-23T14:40:50.384Z,6.81
2018-03-23T14:43:16.662Z,6.97
2018-03-23T14:45:43.122Z,6.89
2018-03-23T14:48:09.177Z,6.84
2018-03-23T14:50:35.268Z,6.74
2018-03-23T14:53:01.485Z,6.73
2018-03-23T14:55:28.069Z,6.71
2018-03-23T14:57:54.673Z,6.70
2018-03-23T15:00:20.760Z,6.68
2018-03-23T15:02:46.792Z,6.68
2018-03-23T15:05:12.906Z,6.56
2018-03-23T15:07:38.972Z,6.61
2018-03-23T15:10:04.977Z,6.59
2018-03-23T15:12:30.998Z,6.56
2018-03-23T15:14:57.117Z,6.58
2018-03-23T15:17:23.468Z,6.58
2018-03-23T15:19:49.535Z,6.68
2018-03-23T15:22:15.554Z,6.65
2018-03-23T15:24:42.021Z,6.59
2018-03-23T15:27:08.268Z,6.62
2018-03-23T15:29:34.483Z,6.60
2018-03-23T15:32:00.531Z,6.67
2018-03-23T15:34:26.607Z,6.71
2018-03-23T15:36:52.760Z,6.62
2018-03-23T15:39:18.831Z,6.63
2018-03-23T15:41:45.012Z,6.56
2018-03-23T15:44:11.017Z,6.57
2018-03-23T15:46:37.058Z,6.60
2018-03-23T15:49:03.317Z,6.59
2018-03-23T15:51:29.397Z,6.53
2018-03-23T15:53:55.524Z,6.60
2018-03-23T15:56:21.740Z,6.58
2018-03-23T15:58:47.777Z,6.62
2018-03-23T16:01:13.798Z,6.63
2018-03-23T16:03:39.829Z,6.61
2018-03-23T16:06:05.903Z,6.59
2018-03-23T16:08:31.964Z,6.70
2018-03-23T16:10:57.986Z,6.78
2018-03-23T16:13:24.426Z,6.73
2018-03-23T16:15:50.520Z,6.72
2018-03-23T16:18:16.787Z,6.74
2018-03-23T16:20:43.475Z,6.70
2018-03-23T16:23:09.541Z,6.76
2018-03-23T16:25:35.570Z,6.87
2018-03-23T16:28:01.661Z,6.90
2018-03-23T16:30:27.804Z,6.90
2018-03-23T16:32:53.841Z,6.85
2018-03-23T16:35:19.932Z,6.80
2018-03-23T16:37:46.098Z,6.77
2018-03-23T16:40:12.161Z,6.72
2018-03-23T16:42:38.264Z,6.73
2018-03-23T16:45:04.332Z,6.70
2018-03-23T16:47:30.358Z,6.69
2018-03-23T16:49:56.802Z,6.72
2018-03-23T16:52:22.958Z,6.64
2018-03-23T16:54:49.087Z,6.66
2018-03-23T16:57:15.339Z,6.73
2018-03-23T16:59:41.585Z,6.69
2018-03-23T17:02:07.764Z,6.74
2018-03-23T17:04:34.026Z,6.70
2018-03-23T17:07:00.361Z,6.63
2018-03-23T17:09:26.986Z,6.62
2018-03-23T17:14:01.689Z,6.66
2018-03-23T17:16:27.999Z,6.64
2018-03-23T17:18:54.407Z,6.62
2018-03-23T17:21:20.868Z,6.56
2018-03-23T17:23:47.210Z,6.53
2018-03-23T17:26:13.349Z,6.49
2018-03-23T17:28:39.505Z,6.47
2018-03-23T17:31:05.748Z,6.42
2018-03-23T17:33:32.115Z,6.43
2018-03-23T17:35:58.422Z,6.40
2018-03-23T17:38:25.059Z,6.42
2018-03-23T17:40:51.483Z,6.37
2018-03-23T17:43:17.915Z,6.36
2018-03-23T17:45:44.567Z,6.39
2018-03-23T17:48:10.999Z,6.34
2018-03-23T17:50:37.217Z,6.32
2018-03-23T17:53:03.368Z,6.30
2018-03-23T17:55:29.551Z,6.34
2018-03-23T17:57:55.613Z,6.31
2018-03-23T18:00:21.759Z,6.32
2018-03-23T18:02:47.845Z,6.30
2018-03-23T18:05:14.001Z,6.28
2018-03-23T18:07:40.714Z,6.27
2018-03-23T18:10:06.845Z,6.28
2018-03-23T18:12:33.121Z,6.26
2018-03-23T18:14:59.290Z,6.28
2018-03-23T18:17:25.380Z,6.26
2018-03-23T18:19:51.443Z,6.26
2018-03-23T18:22:17.756Z,6.24
2018-03-23T18:24:43.853Z,6.27
2018-03-23T18:27:10.019Z,6.21
2018-03-23T18:29:36.141Z,6.20
2018-03-23T18:32:02.402Z,6.20
2018-03-23T18:34:28.613Z,6.20
2018-03-23T18:36:54.875Z,6.16
2018-03-23T18:39:21.534Z,6.18
2018-03-23T18:41:47.715Z,6.12
2018-03-23T18:44:13.856Z,6.11
2018-03-23T18:46:40.167Z,6.02
2018-03-23T18:49:06.633Z,6.00
2018-03-23T18:51:32.852Z,5.88
2018-03-23T18:53:59.471Z,5.82
2018-03-23T18:56:25.649Z,5.77
2018-03-23T18:58:52.113Z,5.73
2018-03-23T19:01:19.195Z,5.65
2018-03-23T19:03:45.711Z,5.61
2018-03-23T19:06:12.571Z,5.58
2018-03-23T19:08:39.257Z,5.54
2018-03-23T19:11:05.782Z,5.51
2018-03-23T19:13:32.206Z,5.48
2018-03-23T19:15:58.657Z,5.42
2018-03-23T19:18:25.152Z,5.46
2018-03-23T19:20:51.757Z,5.61
2018-03-23T19:23:18.488Z,5.61
2018-03-23T19:25:45.963Z,5.65
2018-03-23T19:28:12.447Z,5.72
2018-03-23T19:30:39.022Z,5.75
2018-03-23T19:33:05.579Z,5.72
2018-03-23T19:35:32.037Z,5.78
2018-03-23T19:37:58.511Z,5.79
2018-03-23T19:40:24.944Z,5.75
2018-03-23T19:42:51.317Z,5.75
2018-03-23T19:45:17.716Z,5.71
2018-03-23T19:47:44.091Z,5.71
2018-03-23T19:50:10.602Z,5.61
2018-03-23T19:52:37.392Z,5.55
2018-03-23T19:55:03.912Z,5.52
2018-03-23T19:57:30.684Z,5.52
2018-03-23T19:59:57.218Z,5.53
2018-03-23T20:02:23.584Z,5.63
2018-03-23T20:04:49.745Z,5.65
2018-03-23T20:07:15.914Z,5.71
2018-03-23T20:09:41.959Z,5.74
2018-03-23T20:12:08.017Z,5.78
2018-03-23T20:14:34.318Z,5.80
2018-03-23T20:17:00.420Z,5.77
2018-03-23T20:19:26.506Z,5.76
2018-03-23T20:21:52.903Z,5.79
2018-03-23T20:24:25.786Z,5.79
2018-03-23T20:26:51.885Z,5.79
2018-03-23T20:29:18.002Z,5.76
2018-03-23T20:31:50.180Z,5.77
2018-03-23T20:34:16.430Z,5.72
2018-03-23T20:36:42.977Z,5.73
2018-03-23T20:39:09.214Z,5.67
2018-03-23T20:41:35.526Z,5.72
2018-03-23T20:44:01.692Z,5.70
2018-03-23T20:46:27.780Z,5.73
2018-03-23T20:48:53.836Z,5.71
2018-03-23T20:51:19.926Z,5.74
2018-03-23T20:53:46.014Z,5.74
2018-03-23T20:56:12.400Z,5.77
2018-03-23T20:58:38.746Z,5.79
2018-03-23T21:01:05.391Z,5.83
2018-03-23T21:03:31.440Z,5.86
2018-03-23T21:05:57.582Z,5.82
2018-03-23T21:08:23.654Z,5.78
2018-03-23T21:10:49.748Z,5.73
2018-03-23T21:13:15.892Z,5.72
2018-03-23T21:15:41.980Z,5.70
2018-03-23T21:18:08.126Z,5.72
2018-03-23T21:20:34.552Z,5.71
2018-03-23T21:23:00.762Z,5.73
2018-03-23T21:25:26.912Z,5.72
2018-03-23T21:27:53.241Z,5.74
2018-03-23T21:30:19.309Z,5.68
2018-03-23T21:32:45.426Z,5.75
2018-03-23T21:35:11.562Z,5.77
2018-03-23T21:37:37.650Z,5.73
2018-03-23T21:40:03.755Z,5.72
2018-03-23T21:42:29.798Z,5.72
2018-03-23T21:44:55.894Z,5.78
2018-03-23T21:47:21.997Z,5.79
2018-03-23T21:49:48.061Z,5.76
2018-03-23T21:52:14.163Z,5.74
2018-03-23T21:54:40.336Z,5.67
2018-03-23T21:57:06.532Z,5.65
2018-03-23T21:59:32.952Z,5.66
2018-03-23T22:01:59.211Z,5.67
2018-03-23T22:04:25.339Z,5.70
2018-03-23T22:06:51.476Z,5.73
2018-03-23T22:09:17.511Z,5.71
2018-03-23T22:11:43.559Z,5.70
2018-03-23T22:14:09.603Z,5.71
2018-03-23T22:16:35.624Z,5.69
2018-03-23T22:19:01.608Z,5.68
2018-03-23T22:21:27.745Z,5.66
2018-03-23T22:23:54.097Z,5.69
2018-03-23T22:26:20.202Z,5.65
2018-03-23T22:28:46.336Z,5.65
2018-03-23T22:31:12.415Z,5.70
2018-03-23T22:33:38.480Z,5.70
2018-03-23T22:36:04.611Z,5.75
2018-03-23T22:38:30.635Z,5.75
2018-03-23T22:40:56.812Z,5.74
2018-03-23T22:43:22.849Z,5.80
2018-03-23T22:45:49.093Z,5.78
2018-03-23T22:48:15.137Z,5.73
2018-03-23T22:50:41.249Z,5.75
2018-03-23T22:53:07.286Z,5.72
2018-03-23T22:55:33.284Z,5.75
2018-03-23T22:57:59.414Z,5.75
2018-03-23T23:00:25.438Z,5.78
2018-03-23T23:02:51.452Z,5.74
2018-03-23T23:05:17.479Z,5.81
2018-03-23T23:07:43.468Z,5.77
2018-03-23T23:10:09.566Z,5.80
2018-03-23T23:12:35.594Z,5.84
2018-03-23T23:15:01.586Z,5.80
2018-03-23T23:17:27.610Z,5.78
2018-03-23T23:19:53.658Z,5.81
2018-03-23T23:22:19.776Z,5.77
2018-03-23T23:24:45.764Z,5.76
2018-03-23T23:27:11.794Z,5.74
2018-03-23T23:29:37.810Z,5.73
2018-03-23T23:32:03.829Z,5.75
2018-03-23T23:34:29.877Z,5.72
2018-03-23T23:36:55.926Z,5.74
2018-03-23T23:39:21.957Z,5.73
2018-03-23T23:41:48.829Z,5.75
2018-03-23T23:44:14.976Z,5.72
2018-03-23T23:46:41.006Z,5.71
2018-03-23T23:49:07.071Z,5.74
2018-03-23T23:51:33.093Z,5.74
2018-03-23T23:53:59.308Z,5.76
2018-03-23T23:56:25.395Z,5.78
2018-03-23T23:58:51.427Z,5.76
